sensor_id;sensor_type;location;lat;lon;timestamp;temperature;humidity
56478;DHT22;42382;53.210;5.772;2023-09-19T00:01:42;14.70;84.70
56478;DHT22;42382;53.210;5.772;2023-09-19T00:04:11;14.80;84.70
56478;DHT22;42382;53.210;5.772;2023-09-19T00:06:38;14.80;84.60
56478;DHT22;42382;53.210;5.772;2023-09-19T00:09:04;14.90;84.60
56478;DHT22;42382;53.210;5.772;2023-09-19T00:11:30;15.00;84.50
56478;DHT22;42382;53.210;5.772;2023-09-19T00:13:57;15.00;83.80
56478;DHT22;42382;53.210;5.772;2023-09-19T00:16:24;15.20;83.20
56478;DHT22;42382;53.210;5.772;2023-09-19T00:18:51;15.10;83.90
56478;DHT22;42382;53.210;5.772;2023-09-19T00:21:17;15.10;83.50
56478;DHT22;42382;53.210;5.772;2023-09-19T00:23:42;15.00;82.60
56478;DHT22;42382;53.210;5.772;2023-09-19T00:26:08;15.00;83.10
56478;DHT22;42382;53.210;5.772;2023-09-19T00:28:33;14.90;83.60
56478;DHT22;42382;53.210;5.772;2023-09-19T00:31:00;14.90;82.10
56478;DHT22;42382;53.210;5.772;2023-09-19T00:33:27;14.90;83.30
56478;DHT22;42382;53.210;5.772;2023-09-19T00:35:56;14.80;83.30
56478;DHT22;42382;53.210;5.772;2023-09-19T00:38:22;14.70;83.60
56478;DHT22;42382;53.210;5.772;2023-09-19T00:40:52;14.60;83.10
56478;DHT22;42382;53.210;5.772;2023-09-19T00:43:18;14.50;81.30
56478;DHT22;42382;53.210;5.772;2023-09-19T00:45:49;14.50;82.20
56478;DHT22;42382;53.210;5.772;2023-09-19T00:48:16;14.40;83.10
56478;DHT22;42382;53.210;5.772;2023-09-19T00:50:43;14.40;82.70
56478;DHT22;42382;53.210;5.772;2023-09-19T00:53:09;14.30;81.70
56478;DHT22;42382;53.210;5.772;2023-09-19T00:55:39;14.30;81.70
56478;DHT22;42382;53.210;5.772;2023-09-19T00:58:06;14.20;82.40
56478;DHT22;42382;53.210;5.772;2023-09-19T01:00:33;14.20;82.60
56478;DHT22;42382;53.210;5.772;2023-09-19T01:03:00;14.20;82.60
56478;DHT22;42382;53.210;5.772;2023-09-19T01:05:29;14.10;81.40
56478;DHT22;42382;53.210;5.772;2023-09-19T01:07:55;14.20;82.80
56478;DHT22;42382;53.210;5.772;2023-09-19T01:10:21;14.20;82.60
56478;DHT22;42382;53.210;5.772;2023-09-19T01:16:16;14.10;82.90
56478;DHT22;42382;53.210;5.772;2023-09-19T01:30:14;14.20;84.20
56478;DHT22;42382;53.210;5.772;2023-09-19T01:32:42;14.30;84.20
56478;DHT22;42382;53.210;5.772;2023-09-19T01:35:08;14.30;83.80
56478;DHT22;42382;53.210;5.772;2023-09-19T01:37:38;14.30;83.60
56478;DHT22;42382;53.210;5.772;2023-09-19T01:40:10;14.30;83.60
56478;DHT22;42382;53.210;5.772;2023-09-19T01:43:09;14.30;84.20
56478;DHT22;42382;53.210;5.772;2023-09-19T01:45:48;14.30;84.40
56478;DHT22;42382;53.210;5.772;2023-09-19T01:51:03;14.30;83.50
56478;DHT22;42382;53.210;5.772;2023-09-19T01:53:39;14.20;83.00
56478;DHT22;42382;53.210;5.772;2023-09-19T01:56:08;14.30;84.10
56478;DHT22;42382;53.210;5.772;2023-09-19T01:58:41;14.30;82.00
56478;DHT22;42382;53.210;5.772;2023-09-19T02:01:10;14.30;82.70
56478;DHT22;42382;53.210;5.772;2023-09-19T02:03:39;14.30;83.10
56478;DHT22;42382;53.210;5.772;2023-09-19T02:06:05;14.30;82.80
56478;DHT22;42382;53.210;5.772;2023-09-19T02:08:36;14.30;82.70
56478;DHT22;42382;53.210;5.772;2023-09-19T02:11:02;14.20;82.00
56478;DHT22;42382;53.210;5.772;2023-09-19T02:13:27;14.20;82.00
56478;DHT22;42382;53.210;5.772;2023-09-19T02:15:53;14.20;80.10
56478;DHT22;42382;53.210;5.772;2023-09-19T02:18:19;14.30;81.60
56478;DHT22;42382;53.210;5.772;2023-09-19T02:20:45;14.30;81.90
56478;DHT22;42382;53.210;5.772;2023-09-19T02:23:12;14.30;81.60
56478;DHT22;42382;53.210;5.772;2023-09-19T02:25:38;14.30;81.50
56478;DHT22;42382;53.210;5.772;2023-09-19T02:28:04;14.30;82.40
56478;DHT22;42382;53.210;5.772;2023-09-19T02:30:31;14.30;82.70
56478;DHT22;42382;53.210;5.772;2023-09-19T02:32:56;14.30;83.20
56478;DHT22;42382;53.210;5.772;2023-09-19T02:35:22;14.20;82.90
56478;DHT22;42382;53.210;5.772;2023-09-19T02:37:48;14.20;83.30
56478;DHT22;42382;53.210;5.772;2023-09-19T02:40:14;14.20;83.40
56478;DHT22;42382;53.210;5.772;2023-09-19T02:42:54;14.10;83.80
56478;DHT22;42382;53.210;5.772;2023-09-19T02:45:20;14.10;84.20
56478;DHT22;42382;53.210;5.772;2023-09-19T02:47:47;14.00;84.10
56478;DHT22;42382;53.210;5.772;2023-09-19T02:50:13;13.90;83.00
56478;DHT22;42382;53.210;5.772;2023-09-19T02:52:42;13.90;82.10
56478;DHT22;42382;53.210;5.772;2023-09-19T02:55:14;13.90;81.40
56478;DHT22;42382;53.210;5.772;2023-09-19T02:57:53;13.90;80.50
56478;DHT22;42382;53.210;5.772;2023-09-19T03:00:23;13.90;81.00
56478;DHT22;42382;53.210;5.772;2023-09-19T03:02:54;13.90;81.10
56478;DHT22;42382;53.210;5.772;2023-09-19T03:05:20;13.90;79.80
56478;DHT22;42382;53.210;5.772;2023-09-19T03:07:47;13.90;79.90
56478;DHT22;42382;53.210;5.772;2023-09-19T03:10:16;13.90;80.20
56478;DHT22;42382;53.210;5.772;2023-09-19T03:12:42;13.90;81.40
56478;DHT22;42382;53.210;5.772;2023-09-19T03:15:08;13.80;81.60
56478;DHT22;42382;53.210;5.772;2023-09-19T03:17:36;13.80;82.00
56478;DHT22;42382;53.210;5.772;2023-09-19T03:20:03;13.80;81.70
56478;DHT22;42382;53.210;5.772;2023-09-19T03:22:34;13.80;82.10
56478;DHT22;42382;53.210;5.772;2023-09-19T03:24:59;13.90;81.30
56478;DHT22;42382;53.210;5.772;2023-09-19T03:27:26;13.90;81.00
56478;DHT22;42382;53.210;5.772;2023-09-19T03:29:52;14.00;80.80
56478;DHT22;42382;53.210;5.772;2023-09-19T03:32:19;13.90;81.00
56478;DHT22;42382;53.210;5.772;2023-09-19T03:34:45;14.00;81.40
56478;DHT22;42382;53.210;5.772;2023-09-19T03:37:13;14.00;81.20
56478;DHT22;42382;53.210;5.772;2023-09-19T03:39:40;14.00;81.00
56478;DHT22;42382;53.210;5.772;2023-09-19T03:42:05;14.00;81.10
56478;DHT22;42382;53.210;5.772;2023-09-19T03:44:32;14.00;81.20
56478;DHT22;42382;53.210;5.772;2023-09-19T03:46:58;14.00;81.90
56478;DHT22;42382;53.210;5.772;2023-09-19T03:49:23;14.00;82.10
56478;DHT22;42382;53.210;5.772;2023-09-19T03:51:49;14.00;82.10
56478;DHT22;42382;53.210;5.772;2023-09-19T03:54:14;14.00;81.50
56478;DHT22;42382;53.210;5.772;2023-09-19T03:56:42;14.00;81.80
56478;DHT22;42382;53.210;5.772;2023-09-19T03:59:08;14.10;82.20
56478;DHT22;42382;53.210;5.772;2023-09-19T04:01:35;14.00;81.40
56478;DHT22;42382;53.210;5.772;2023-09-19T04:04:00;14.10;81.80
56478;DHT22;42382;53.210;5.772;2023-09-19T04:06:34;14.10;81.70
56478;DHT22;42382;53.210;5.772;2023-09-19T04:09:03;14.10;82.20
56478;DHT22;42382;53.210;5.772;2023-09-19T04:11:29;14.20;82.20
56478;DHT22;42382;53.210;5.772;2023-09-19T04:13:56;14.20;82.20
56478;DHT22;42382;53.210;5.772;2023-09-19T04:16:22;14.20;81.80
56478;DHT22;42382;53.210;5.772;2023-09-19T04:18:47;14.20;81.20
56478;DHT22;42382;53.210;5.772;2023-09-19T04:21:13;14.20;81.80
56478;DHT22;42382;53.210;5.772;2023-09-19T04:23:38;14.30;81.20
56478;DHT22;42382;53.210;5.772;2023-09-19T04:26:04;14.30;81.30
56478;DHT22;42382;53.210;5.772;2023-09-19T04:28:33;14.30;81.70
56478;DHT22;42382;53.210;5.772;2023-09-19T04:31:00;14.30;79.50
56478;DHT22;42382;53.210;5.772;2023-09-19T04:33:29;14.30;80.30
56478;DHT22;42382;53.210;5.772;2023-09-19T04:35:55;14.40;80.00
56478;DHT22;42382;53.210;5.772;2023-09-19T04:38:21;14.40;79.40
56478;DHT22;42382;53.210;5.772;2023-09-19T04:40:47;14.40;78.80
56478;DHT22;42382;53.210;5.772;2023-09-19T04:43:13;14.40;78.90
56478;DHT22;42382;53.210;5.772;2023-09-19T04:45:39;14.40;79.30
56478;DHT22;42382;53.210;5.772;2023-09-19T04:48:05;14.40;78.90
56478;DHT22;42382;53.210;5.772;2023-09-19T04:50:34;14.40;78.20
56478;DHT22;42382;53.210;5.772;2023-09-19T04:53:00;14.40;77.40
56478;DHT22;42382;53.210;5.772;2023-09-19T04:55:29;14.40;77.70
56478;DHT22;42382;53.210;5.772;2023-09-19T04:57:55;14.40;78.00
56478;DHT22;42382;53.210;5.772;2023-09-19T05:00:22;14.40;78.00
56478;DHT22;42382;53.210;5.772;2023-09-19T05:02:55;14.50;78.20
56478;DHT22;42382;53.210;5.772;2023-09-19T05:05:22;14.40;78.40
56478;DHT22;42382;53.210;5.772;2023-09-19T05:07:49;14.50;79.00
56478;DHT22;42382;53.210;5.772;2023-09-19T05:10:15;14.50;78.70
56478;DHT22;42382;53.210;5.772;2023-09-19T05:12:44;14.50;79.20
56478;DHT22;42382;53.210;5.772;2023-09-19T05:15:12;14.50;79.30
56478;DHT22;42382;53.210;5.772;2023-09-19T05:17:40;14.50;79.40
56478;DHT22;42382;53.210;5.772;2023-09-19T05:20:06;14.50;79.10
56478;DHT22;42382;53.210;5.772;2023-09-19T05:22:38;14.60;79.40
56478;DHT22;42382;53.210;5.772;2023-09-19T05:25:06;14.60;79.00
56478;DHT22;42382;53.210;5.772;2023-09-19T05:27:32;14.60;79.00
56478;DHT22;42382;53.210;5.772;2023-09-19T05:29:59;14.60;79.30
56478;DHT22;42382;53.210;5.772;2023-09-19T05:32:25;14.60;79.60
56478;DHT22;42382;53.210;5.772;2023-09-19T05:34:51;14.60;79.80
56478;DHT22;42382;53.210;5.772;2023-09-19T05:37:22;14.60;79.60
56478;DHT22;42382;53.210;5.772;2023-09-19T05:39:48;14.60;79.70
56478;DHT22;42382;53.210;5.772;2023-09-19T05:42:13;14.60;79.90
56478;DHT22;42382;53.210;5.772;2023-09-19T05:44:39;14.60;80.10
56478;DHT22;42382;53.210;5.772;2023-09-19T05:47:05;14.50;80.10
56478;DHT22;42382;53.210;5.772;2023-09-19T05:49:30;14.60;80.10
56478;DHT22;42382;53.210;5.772;2023-09-19T05:51:56;14.50;80.40
56478;DHT22;42382;53.210;5.772;2023-09-19T05:54:24;14.60;80.60
56478;DHT22;42382;53.210;5.772;2023-09-19T05:56:49;14.60;80.70
56478;DHT22;42382;53.210;5.772;2023-09-19T05:59:19;14.60;80.70
56478;DHT22;42382;53.210;5.772;2023-09-19T06:01:44;14.60;80.20
56478;DHT22;42382;53.210;5.772;2023-09-19T06:04:10;14.70;79.90
56478;DHT22;42382;53.210;5.772;2023-09-19T06:06:36;14.60;79.90
56478;DHT22;42382;53.210;5.772;2023-09-19T06:09:06;14.60;79.10
56478;DHT22;42382;53.210;5.772;2023-09-19T06:11:34;14.70;78.30
56478;DHT22;42382;53.210;5.772;2023-09-19T06:14:01;14.70;78.50
56478;DHT22;42382;53.210;5.772;2023-09-19T06:16:28;14.80;78.00
56478;DHT22;42382;53.210;5.772;2023-09-19T06:18:54;14.80;78.60
56478;DHT22;42382;53.210;5.772;2023-09-19T06:21:22;14.80;78.60
56478;DHT22;42382;53.210;5.772;2023-09-19T06:23:48;14.80;78.80
56478;DHT22;42382;53.210;5.772;2023-09-19T06:26:14;14.80;78.70
56478;DHT22;42382;53.210;5.772;2023-09-19T06:28:40;14.90;78.80
56478;DHT22;42382;53.210;5.772;2023-09-19T06:31:06;14.90;78.70
56478;DHT22;42382;53.210;5.772;2023-09-19T06:33:38;14.90;78.90
56478;DHT22;42382;53.210;5.772;2023-09-19T06:36:05;15.00;78.80
56478;DHT22;42382;53.210;5.772;2023-09-19T06:38:30;15.00;78.30
56478;DHT22;42382;53.210;5.772;2023-09-19T06:40:58;15.10;78.40
56478;DHT22;42382;53.210;5.772;2023-09-19T06:43:24;15.10;78.10
56478;DHT22;42382;53.210;5.772;2023-09-19T06:45:50;15.10;78.30
56478;DHT22;42382;53.210;5.772;2023-09-19T06:48:17;15.10;77.80
56478;DHT22;42382;53.210;5.772;2023-09-19T06:50:43;15.20;77.80
56478;DHT22;42382;53.210;5.772;2023-09-19T06:53:10;15.20;77.70
56478;DHT22;42382;53.210;5.772;2023-09-19T06:55:36;15.30;77.20
56478;DHT22;42382;53.210;5.772;2023-09-19T06:58:02;15.30;77.20
56478;DHT22;42382;53.210;5.772;2023-09-19T07:00:28;15.30;75.50
56478;DHT22;42382;53.210;5.772;2023-09-19T07:03:00;15.40;75.70
56478;DHT22;42382;53.210;5.772;2023-09-19T07:05:32;15.40;76.00
56478;DHT22;42382;53.210;5.772;2023-09-19T07:07:59;15.50;76.40
56478;DHT22;42382;53.210;5.772;2023-09-19T07:10:25;15.60;74.90
56478;DHT22;42382;53.210;5.772;2023-09-19T07:12:58;15.60;75.60
56478;DHT22;42382;53.210;5.772;2023-09-19T07:15:24;15.60;75.20
56478;DHT22;42382;53.210;5.772;2023-09-19T07:17:51;15.60;75.60
56478;DHT22;42382;53.210;5.772;2023-09-19T07:20:18;15.70;75.70
56478;DHT22;42382;53.210;5.772;2023-09-19T07:22:44;15.70;75.60
56478;DHT22;42382;53.210;5.772;2023-09-19T07:25:10;15.60;75.00
56478;DHT22;42382;53.210;5.772;2023-09-19T07:27:35;15.70;75.70
56478;DHT22;42382;53.210;5.772;2023-09-19T07:30:01;15.70;75.60
56478;DHT22;42382;53.210;5.772;2023-09-19T07:32:27;15.70;75.30
56478;DHT22;42382;53.210;5.772;2023-09-19T07:34:52;15.70;74.80
56478;DHT22;42382;53.210;5.772;2023-09-19T07:37:20;15.80;74.70
56478;DHT22;42382;53.210;5.772;2023-09-19T07:39:46;15.90;74.70
56478;DHT22;42382;53.210;5.772;2023-09-19T07:42:12;15.90;74.90
56478;DHT22;42382;53.210;5.772;2023-09-19T07:44:43;16.00;74.80
56478;DHT22;42382;53.210;5.772;2023-09-19T07:47:13;16.10;74.80
56478;DHT22;42382;53.210;5.772;2023-09-19T07:49:39;16.20;74.20
56478;DHT22;42382;53.210;5.772;2023-09-19T07:52:05;16.30;74.20
56478;DHT22;42382;53.210;5.772;2023-09-19T07:54:30;16.30;72.90
56478;DHT22;42382;53.210;5.772;2023-09-19T07:57:01;16.40;72.90
56478;DHT22;42382;53.210;5.772;2023-09-19T07:59:27;16.40;72.80
56478;DHT22;42382;53.210;5.772;2023-09-19T08:01:53;16.40;72.00
56478;DHT22;42382;53.210;5.772;2023-09-19T08:04:19;16.40;72.60
56478;DHT22;42382;53.210;5.772;2023-09-19T08:06:45;16.50;72.10
56478;DHT22;42382;53.210;5.772;2023-09-19T08:09:11;16.60;72.10
56478;DHT22;42382;53.210;5.772;2023-09-19T08:11:38;16.70;72.60
56478;DHT22;42382;53.210;5.772;2023-09-19T08:33:39;16.80;73.00
56478;DHT22;42382;53.210;5.772;2023-09-19T08:36:06;17.60;70.60
56478;DHT22;42382;53.210;5.772;2023-09-19T08:38:34;18.00;68.80
56478;DHT22;42382;53.210;5.772;2023-09-19T08:41:00;18.30;67.20
56478;DHT22;42382;53.210;5.772;2023-09-19T08:43:27;18.60;66.90
56478;DHT22;42382;53.210;5.772;2023-09-19T08:48:32;19.20;64.40
56478;DHT22;42382;53.210;5.772;2023-09-19T08:56:17;19.60;64.00
56478;DHT22;42382;53.210;5.772;2023-09-19T08:58:53;19.80;63.90
56478;DHT22;42382;53.210;5.772;2023-09-19T09:01:21;20.00;62.90
56478;DHT22;42382;53.210;5.772;2023-09-19T09:03:54;20.30;62.80
56478;DHT22;42382;53.210;5.772;2023-09-19T09:06:21;20.30;59.00
56478;DHT22;42382;53.210;5.772;2023-09-19T09:08:47;20.40;61.20
56478;DHT22;42382;53.210;5.772;2023-09-19T09:11:16;20.40;58.80
56478;DHT22;42382;53.210;5.772;2023-09-19T09:13:46;20.50;59.90
56478;DHT22;42382;53.210;5.772;2023-09-19T09:16:13;20.80;57.90
56478;DHT22;42382;53.210;5.772;2023-09-19T09:18:40;20.90;58.70
56478;DHT22;42382;53.210;5.772;2023-09-19T09:21:06;21.00;59.10
56478;DHT22;42382;53.210;5.772;2023-09-19T09:23:32;21.00;55.70
56478;DHT22;42382;53.210;5.772;2023-09-19T09:25:59;20.90;58.10
56478;DHT22;42382;53.210;5.772;2023-09-19T09:28:29;21.10;59.20
56478;DHT22;42382;53.210;5.772;2023-09-19T09:30:56;21.20;57.70
56478;DHT22;42382;53.210;5.772;2023-09-19T09:33:24;21.20;58.10
56478;DHT22;42382;53.210;5.772;2023-09-19T09:35:55;21.40;56.50
56478;DHT22;42382;53.210;5.772;2023-09-19T09:38:45;21.60;56.80
56478;DHT22;42382;53.210;5.772;2023-09-19T09:41:12;21.70;58.20
56478;DHT22;42382;53.210;5.772;2023-09-19T09:43:42;21.80;57.00
56478;DHT22;42382;53.210;5.772;2023-09-19T09:46:12;21.70;57.90
56478;DHT22;42382;53.210;5.772;2023-09-19T09:51:33;21.60;58.30
56478;DHT22;42382;53.210;5.772;2023-09-19T09:54:28;21.30;57.10
56478;DHT22;42382;53.210;5.772;2023-09-19T09:57:09;21.00;58.70
56478;DHT22;42382;53.210;5.772;2023-09-19T09:59:57;20.50;59.50
56478;DHT22;42382;53.210;5.772;2023-09-19T10:02:42;20.20;60.70
56478;DHT22;42382;53.210;5.772;2023-09-19T10:05:15;19.90;61.30
56478;DHT22;42382;53.210;5.772;2023-09-19T10:07:54;19.80;62.00
56478;DHT22;42382;53.210;5.772;2023-09-19T10:10:35;19.80;62.40
56478;DHT22;42382;53.210;5.772;2023-09-19T10:13:07;20.00;61.40
56478;DHT22;42382;53.210;5.772;2023-09-19T10:15:38;20.30;60.60
56478;DHT22;42382;53.210;5.772;2023-09-19T10:18:06;20.10;60.70
56478;DHT22;42382;53.210;5.772;2023-09-19T10:20:36;20.00;61.40
56478;DHT22;42382;53.210;5.772;2023-09-19T10:23:09;20.00;61.00
56478;DHT22;42382;53.210;5.772;2023-09-19T10:25:41;19.90;62.00
56478;DHT22;42382;53.210;5.772;2023-09-19T10:28:12;19.90;62.10
56478;DHT22;42382;53.210;5.772;2023-09-19T10:30:41;19.80;62.70
56478;DHT22;42382;53.210;5.772;2023-09-19T10:33:11;19.80;63.70
56478;DHT22;42382;53.210;5.772;2023-09-19T10:35:39;19.90;64.40
56478;DHT22;42382;53.210;5.772;2023-09-19T10:38:06;19.90;64.80
56478;DHT22;42382;53.210;5.772;2023-09-19T10:40:33;19.80;65.20
56478;DHT22;42382;53.210;5.772;2023-09-19T10:43:04;19.60;66.80
56478;DHT22;42382;53.210;5.772;2023-09-19T10:45:35;19.40;68.20
56478;DHT22;42382;53.210;5.772;2023-09-19T10:48:02;19.20;68.40
56478;DHT22;42382;53.210;5.772;2023-09-19T10:50:50;19.00;69.50
56478;DHT22;42382;53.210;5.772;2023-09-19T10:53:17;18.80;70.80
56478;DHT22;42382;53.210;5.772;2023-09-19T10:55:58;18.60;71.70
56478;DHT22;42382;53.210;5.772;2023-09-19T10:58:35;18.50;74.10
56478;DHT22;42382;53.210;5.772;2023-09-19T11:01:04;18.20;75.10
56478;DHT22;42382;53.210;5.772;2023-09-19T11:03:41;18.40;75.50
56478;DHT22;42382;53.210;5.772;2023-09-19T11:06:13;18.80;74.30
56478;DHT22;42382;53.210;5.772;2023-09-19T11:09:03;19.10;72.80
56478;DHT22;42382;53.210;5.772;2023-09-19T11:11:51;19.00;72.40
56478;DHT22;42382;53.210;5.772;2023-09-19T11:30:39;18.20;75.80
56478;DHT22;42382;53.210;5.772;2023-09-19T11:33:19;18.20;75.80
56478;DHT22;42382;53.210;5.772;2023-09-19T11:43:53;18.10;77.20
56478;DHT22;42382;53.210;5.772;2023-09-19T11:46:24;17.90;78.70
56478;DHT22;42382;53.210;5.772;2023-09-19T11:48:53;17.70;79.80
56478;DHT22;42382;53.210;5.772;2023-09-19T11:53:53;17.40;81.30
56478;DHT22;42382;53.210;5.772;2023-09-19T11:56:23;17.30;83.00
56478;DHT22;42382;53.210;5.772;2023-09-19T11:58:54;17.10;83.60
56478;DHT22;42382;53.210;5.772;2023-09-19T12:01:24;17.00;84.80
56478;DHT22;42382;53.210;5.772;2023-09-19T12:03:55;17.00;85.40
56478;DHT22;42382;53.210;5.772;2023-09-19T12:06:24;17.00;85.70
56478;DHT22;42382;53.210;5.772;2023-09-19T12:08:49;17.00;85.80
56478;DHT22;42382;53.210;5.772;2023-09-19T12:11:17;17.30;86.00
56478;DHT22;42382;53.210;5.772;2023-09-19T12:13:44;17.50;86.10
56478;DHT22;42382;53.210;5.772;2023-09-19T12:16:18;17.50;85.20
56478;DHT22;42382;53.210;5.772;2023-09-19T12:18:47;17.60;84.70
56478;DHT22;42382;53.210;5.772;2023-09-19T12:21:23;17.70;84.40
56478;DHT22;42382;53.210;5.772;2023-09-19T12:26:30;17.90;83.20
56478;DHT22;42382;53.210;5.772;2023-09-19T12:28:59;18.00;82.90
56478;DHT22;42382;53.210;5.772;2023-09-19T12:31:27;18.00;82.60
56478;DHT22;42382;53.210;5.772;2023-09-19T12:33:56;18.10;82.20
56478;DHT22;42382;53.210;5.772;2023-09-19T12:36:24;18.00;82.00
56478;DHT22;42382;53.210;5.772;2023-09-19T12:38:59;18.00;81.10
56478;DHT22;42382;53.210;5.772;2023-09-19T12:41:28;17.90;81.80
56478;DHT22;42382;53.210;5.772;2023-09-19T12:43:54;17.70;82.40
56478;DHT22;42382;53.210;5.772;2023-09-19T12:46:23;17.50;82.80
56478;DHT22;42382;53.210;5.772;2023-09-19T12:49:17;17.40;83.20
56478;DHT22;42382;53.210;5.772;2023-09-19T12:51:43;17.30;84.50
56478;DHT22;42382;53.210;5.772;2023-09-19T12:54:12;17.20;84.70
56478;DHT22;42382;53.210;5.772;2023-09-19T12:56:41;17.10;85.80
56478;DHT22;42382;53.210;5.772;2023-09-19T12:59:14;17.00;86.80
56478;DHT22;42382;53.210;5.772;2023-09-19T13:01:41;16.90;87.00
56478;DHT22;42382;53.210;5.772;2023-09-19T13:04:19;17.00;87.20
56478;DHT22;42382;53.210;5.772;2023-09-19T13:06:46;16.90;87.30
56478;DHT22;42382;53.210;5.772;2023-09-19T13:09:14;17.00;87.60
56478;DHT22;42382;53.210;5.772;2023-09-19T13:11:41;17.00;87.10
56478;DHT22;42382;53.210;5.772;2023-09-19T13:14:21;17.20;86.80
56478;DHT22;42382;53.210;5.772;2023-09-19T13:17:01;17.20;86.60
56478;DHT22;42382;53.210;5.772;2023-09-19T13:19:47;17.30;86.50
56478;DHT22;42382;53.210;5.772;2023-09-19T13:22:42;17.50;86.20
56478;DHT22;42382;53.210;5.772;2023-09-19T13:25:10;17.50;85.10
56478;DHT22;42382;53.210;5.772;2023-09-19T13:27:53;17.60;85.40
56478;DHT22;42382;53.210;5.772;2023-09-19T13:30:20;17.70;84.90
56478;DHT22;42382;53.210;5.772;2023-09-19T13:32:46;17.80;84.40
56478;DHT22;42382;53.210;5.772;2023-09-19T13:35:13;17.80;84.80
56478;DHT22;42382;53.210;5.772;2023-09-19T13:37:40;17.90;84.70
56478;DHT22;42382;53.210;5.772;2023-09-19T13:40:11;17.90;84.40
56478;DHT22;42382;53.210;5.772;2023-09-19T13:42:37;17.90;84.20
56478;DHT22;42382;53.210;5.772;2023-09-19T13:45:04;17.90;84.60
56478;DHT22;42382;53.210;5.772;2023-09-19T13:47:30;17.70;84.90
56478;DHT22;42382;53.210;5.772;2023-09-19T13:49:56;17.70;85.30
56478;DHT22;42382;53.210;5.772;2023-09-19T13:52:22;17.70;85.60
56478;DHT22;42382;53.210;5.772;2023-09-19T13:54:51;17.70;85.30
56478;DHT22;42382;53.210;5.772;2023-09-19T13:57:18;17.80;85.40
56478;DHT22;42382;53.210;5.772;2023-09-19T13:59:44;17.80;85.00
56478;DHT22;42382;53.210;5.772;2023-09-19T14:02:09;17.80;85.00
56478;DHT22;42382;53.210;5.772;2023-09-19T14:04:35;17.80;84.80
56478;DHT22;42382;53.210;5.772;2023-09-19T14:07:02;17.80;84.90
56478;DHT22;42382;53.210;5.772;2023-09-19T14:09:28;17.70;85.30
56478;DHT22;42382;53.210;5.772;2023-09-19T14:11:54;17.70;86.00
56478;DHT22;42382;53.210;5.772;2023-09-19T14:14:20;17.50;86.60
56478;DHT22;42382;53.210;5.772;2023-09-19T14:16:49;17.40;87.00
56478;DHT22;42382;53.210;5.772;2023-09-19T14:19:17;17.40;87.20
56478;DHT22;42382;53.210;5.772;2023-09-19T14:21:43;17.40;87.00
56478;DHT22;42382;53.210;5.772;2023-09-19T14:24:09;17.30;87.10
56478;DHT22;42382;53.210;5.772;2023-09-19T14:26:35;17.40;87.00
56478;DHT22;42382;53.210;5.772;2023-09-19T14:29:01;17.40;86.80
56478;DHT22;42382;53.210;5.772;2023-09-19T14:31:27;17.40;86.40
56478;DHT22;42382;53.210;5.772;2023-09-19T14:33:57;17.40;86.40
56478;DHT22;42382;53.210;5.772;2023-09-19T14:36:25;17.50;86.30
56478;DHT22;42382;53.210;5.772;2023-09-19T14:38:55;17.60;86.20
56478;DHT22;42382;53.210;5.772;2023-09-19T14:41:21;17.60;85.90
56478;DHT22;42382;53.210;5.772;2023-09-19T14:43:48;17.80;85.80
56478;DHT22;42382;53.210;5.772;2023-09-19T14:46:14;17.70;85.70
56478;DHT22;42382;53.210;5.772;2023-09-19T14:48:40;17.70;85.80
56478;DHT22;42382;53.210;5.772;2023-09-19T14:51:07;17.70;85.50
56478;DHT22;42382;53.210;5.772;2023-09-19T14:53:34;17.80;85.60
56478;DHT22;42382;53.210;5.772;2023-09-19T14:56:01;17.80;85.60
56478;DHT22;42382;53.210;5.772;2023-09-19T14:58:31;17.80;85.50
56478;DHT22;42382;53.210;5.772;2023-09-19T15:01:07;17.80;85.30
56478;DHT22;42382;53.210;5.772;2023-09-19T15:03:33;17.80;85.20
56478;DHT22;42382;53.210;5.772;2023-09-19T15:06:01;17.90;85.20
56478;DHT22;42382;53.210;5.772;2023-09-19T15:08:28;17.90;84.90
56478;DHT22;42382;53.210;5.772;2023-09-19T15:10:53;17.90;84.80
56478;DHT22;42382;53.210;5.772;2023-09-19T15:13:19;17.90;85.00
56478;DHT22;42382;53.210;5.772;2023-09-19T15:15:45;17.90;85.10
56478;DHT22;42382;53.210;5.772;2023-09-19T15:18:13;18.00;85.10
56478;DHT22;42382;53.210;5.772;2023-09-19T15:20:44;17.90;85.10
56478;DHT22;42382;53.210;5.772;2023-09-19T15:23:09;17.90;85.10
56478;DHT22;42382;53.210;5.772;2023-09-19T15:25:35;17.90;85.20
56478;DHT22;42382;53.210;5.772;2023-09-19T15:28:01;17.90;85.50
56478;DHT22;42382;53.210;5.772;2023-09-19T15:30:37;17.90;85.70
56478;DHT22;42382;53.210;5.772;2023-09-19T15:33:06;17.90;86.00
56478;DHT22;42382;53.210;5.772;2023-09-19T15:35:32;17.90;86.20
56478;DHT22;42382;53.210;5.772;2023-09-19T15:37:58;17.90;86.40
56478;DHT22;42382;53.210;5.772;2023-09-19T15:40:26;17.80;86.50
56478;DHT22;42382;53.210;5.772;2023-09-19T15:42:54;17.80;86.50
56478;DHT22;42382;53.210;5.772;2023-09-19T15:45:19;17.80;86.70
56478;DHT22;42382;53.210;5.772;2023-09-19T15:47:45;17.80;86.80
56478;DHT22;42382;53.210;5.772;2023-09-19T15:50:11;17.70;87.30
56478;DHT22;42382;53.210;5.772;2023-09-19T15:52:41;17.70;87.10
56478;DHT22;42382;53.210;5.772;2023-09-19T15:55:08;17.60;87.70
56478;DHT22;42382;53.210;5.772;2023-09-19T15:57:36;17.50;88.00
56478;DHT22;42382;53.210;5.772;2023-09-19T16:00:02;17.40;88.30
56478;DHT22;42382;53.210;5.772;2023-09-19T16:02:30;17.40;88.60
56478;DHT22;42382;53.210;5.772;2023-09-19T16:04:55;17.30;89.20
56478;DHT22;42382;53.210;5.772;2023-09-19T16:07:21;17.20;89.00
56478;DHT22;42382;53.210;5.772;2023-09-19T16:09:47;17.10;89.10
56478;DHT22;42382;53.210;5.772;2023-09-19T16:12:12;17.10;89.50
56478;DHT22;42382;53.210;5.772;2023-09-19T16:14:39;17.10;89.90
56478;DHT22;42382;53.210;5.772;2023-09-19T16:17:05;17.00;90.10
56478;DHT22;42382;53.210;5.772;2023-09-19T16:19:33;17.00;90.30
56478;DHT22;42382;53.210;5.772;2023-09-19T16:21:59;16.90;90.30
56478;DHT22;42382;53.210;5.772;2023-09-19T16:24:25;16.90;91.00
56478;DHT22;42382;53.210;5.772;2023-09-19T16:26:54;16.90;91.20
56478;DHT22;42382;53.210;5.772;2023-09-19T16:29:19;16.80;91.00
56478;DHT22;42382;53.210;5.772;2023-09-19T16:31:49;16.80;91.50
56478;DHT22;42382;53.210;5.772;2023-09-19T16:34:15;16.80;91.70
56478;DHT22;42382;53.210;5.772;2023-09-19T16:36:42;16.80;91.70
56478;DHT22;42382;53.210;5.772;2023-09-19T16:39:08;16.70;91.70
56478;DHT22;42382;53.210;5.772;2023-09-19T16:41:34;16.70;92.00
56478;DHT22;42382;53.210;5.772;2023-09-19T16:44:02;16.70;91.90
56478;DHT22;42382;53.210;5.772;2023-09-19T16:46:29;16.70;91.80
56478;DHT22;42382;53.210;5.772;2023-09-19T16:48:55;16.70;92.00
56478;DHT22;42382;53.210;5.772;2023-09-19T16:51:21;16.70;92.30
56478;DHT22;42382;53.210;5.772;2023-09-19T16:53:46;16.70;92.00
56478;DHT22;42382;53.210;5.772;2023-09-19T16:56:14;16.70;92.20